Terminal Aerodrome Forecast
Issued by NWS

Home | Current Version | Previous Version | Text Only | Print | Product List | Glossary On
Versions: 1 2 3 4 5 6 7 8 9 10 11 12 13 14 15 16 17 18 19
000
FTUS43 KFGF 270500
TAFDVL
TAF
KDVL 270520Z 2706/2806 13005KT P6SM SCT250
     FM271000 16008KT P6SM BKN250
     FM271500 17014G20KT 4SM -SN BKN030
     FM271700 17014G20KT 1SM -SN OVC015
     FM272100 17012KT 5SM -SN OVC015
     FM272300 16013KT P6SM OVC025
      AMD LTD TO CLD VIS AND WIND=

USA.gov is the U.S. government's official web portal to all federal, state and local government web resources and services.